Lavaltrie, Canada
Current Conditions -  °F | °C
As of 9:00 AM on Monday 20 Oct 2014 (Local Time) from CYHU Reporting Station
Scattered Clouds Scattered Clouds  
Wind Chill: 33°   Ceiling: Unl
Heat Index: 37°   Visibility: 9mi
Dew Point: 30°   Wind: 6mph
Humidity: 75%   Direction: 190°S
Pressure: 29.99"   Gusts: NA
Location:  45.88°N, 73.28°W
Report Text: CYHU 201300Z AUTO 19005KT 9SM SCT210 03/M01 A2999 RMK SLP157
Loading
Personal Weather Stations






























Interactive Weather Map
Tropical Storm Tracking
New forecast layout! Learn more

10-Day Weather Forecast

Advertisements
Track Severe Weather on mobile